sensor_id;sensor_type;location;lat;lon;timestamp;pressure;altitude;pressure_sealevel;temperature;humidity
26635;BME280;14490;54.208;37.686;2023-07-31T05:41:58;98494.94;;;21.32;100.00
26635;BME280;14490;54.208;37.686;2023-07-31T05:44:26;98503.94;;;21.45;100.00
26635;BME280;14490;54.208;37.686;2023-07-31T05:46:53;98500.34;;;21.45;100.00
26635;BME280;14490;54.208;37.686;2023-07-31T05:49:20;98506.66;;;21.45;100.00
26635;BME280;14490;54.208;37.686;2023-07-31T05:51:47;98506.66;;;21.45;100.00
26635;BME280;14490;54.208;37.686;2023-07-31T05:54:15;98503.25;;;21.50;100.00
26635;BME280;14490;54.208;37.686;2023-07-31T05:56:42;98500.94;;;21.53;100.00
26635;BME280;14490;54.208;37.686;2023-07-31T05:59:12;98505.75;;;21.58;100.00
26635;BME280;14490;54.208;37.686;2023-07-31T06:01:39;98462.50;;;21.35;100.00
26635;BME280;14490;54.208;37.686;2023-07-31T06:04:07;98489.53;;;21.56;100.00
26635;BME280;14490;54.208;37.686;2023-07-31T06:06:34;98503.75;;;21.71;100.00
26635;BME280;14490;54.208;37.686;2023-07-31T06:09:01;98502.28;;;21.75;100.00
26635;BME280;14490;54.208;37.686;2023-07-31T06:11:29;98494.66;;;21.77;100.00
26635;BME280;14490;54.208;37.686;2023-07-31T06:14:00;98501.38;;;21.88;100.00
26635;BME280;14490;54.208;37.686;2023-07-31T06:16:31;98505.28;;;21.99;100.00
26635;BME280;14490;54.208;37.686;2023-07-31T06:18:58;98492.69;;;21.98;100.00
26635;BME280;14490;54.208;37.686;2023-07-31T06:21:30;98497.88;;;22.06;100.00
26635;BME280;14490;54.208;37.686;2023-07-31T06:23:59;98497.44;;;22.09;100.00
26635;BME280;14490;54.208;37.686;2023-07-31T06:26:29;98501.34;;;22.19;100.00
26635;BME280;14490;54.208;37.686;2023-07-31T06:28:56;98498.59;;;22.19;100.00
26635;BME280;14490;54.208;37.686;2023-07-31T06:31:24;98487.88;;;22.18;100.00
26635;BME280;14490;54.208;37.686;2023-07-31T06:33:52;98519.53;;;22.39;100.00
26635;BME280;14490;54.208;37.686;2023-07-31T06:36:20;98508.72;;;22.44;100.00
26635;BME280;14490;54.208;37.686;2023-07-31T06:38:48;98512.47;;;22.49;100.00
26635;BME280;14490;54.208;37.686;2023-07-31T06:41:15;98515.97;;;22.56;100.00
26635;BME280;14490;54.208;37.686;2023-07-31T06:43:43;98496.19;;;22.54;100.00
26635;BME280;14490;54.208;37.686;2023-07-31T06:46:10;98495.72;;;22.57;100.00
26635;BME280;14490;54.208;37.686;2023-07-31T06:48:40;98506.16;;;22.73;100.00
26635;BME280;14490;54.208;37.686;2023-07-31T06:51:10;98497.69;;;22.75;100.00
26635;BME280;14490;54.208;37.686;2023-07-31T06:53:39;98508.13;;;22.84;100.00
26635;BME280;14490;54.208;37.686;2023-07-31T06:56:06;98498.84;;;22.85;100.00
26635;BME280;14490;54.208;37.686;2023-07-31T06:58:34;98504.88;;;22.94;100.00
26635;BME280;14490;54.208;37.686;2023-07-31T07:01:01;98504.16;;;22.99;100.00
26635;BME280;14490;54.208;37.686;2023-07-31T07:03:29;98513.38;;;23.04;100.00
26635;BME280;14490;54.208;37.686;2023-07-31T07:05:56;98517.16;;;23.10;100.00
26635;BME280;14490;54.208;37.686;2023-07-31T07:08:25;98513.47;;;23.16;100.00
26635;BME280;14490;54.208;37.686;2023-07-31T07:10:54;98508.13;;;23.21;100.00
26635;BME280;14490;54.208;37.686;2023-07-31T07:13:22;98505.06;;;23.29;100.00
26635;BME280;14490;54.208;37.686;2023-07-31T07:15:50;98494.06;;;23.29;100.00
26635;BME280;14490;54.208;37.686;2023-07-31T07:18:24;98485.84;;;23.29;100.00
26635;BME280;14490;54.208;37.686;2023-07-31T07:20:52;98491.66;;;23.39;100.00
26635;BME280;14490;54.208;37.686;2023-07-31T07:23:22;98505.69;;;23.49;100.00
26635;BME280;14490;54.208;37.686;2023-07-31T07:25:51;98455.38;;;23.19;100.00
26635;BME280;14490;54.208;37.686;2023-07-31T07:28:18;98478.97;;;23.38;100.00
26635;BME280;14490;54.208;37.686;2023-07-31T07:30:51;98493.78;;;23.55;100.00
26635;BME280;14490;54.208;37.686;2023-07-31T07:33:19;98500.00;;;23.62;100.00
26635;BME280;14490;54.208;37.686;2023-07-31T07:35:46;98508.78;;;23.71;100.00
26635;BME280;14490;54.208;37.686;2023-07-31T07:38:14;98500.66;;;23.76;100.00
26635;BME280;14490;54.208;37.686;2023-07-31T07:40:42;98503.78;;;23.79;100.00
26635;BME280;14490;54.208;37.686;2023-07-31T07:43:17;98506.91;;;23.83;100.00
26635;BME280;14490;54.208;37.686;2023-07-31T07:45:44;98507.25;;;23.86;100.00
26635;BME280;14490;54.208;37.686;2023-07-31T07:48:11;98511.22;;;23.90;100.00
26635;BME280;14490;54.208;37.686;2023-07-31T07:50:39;98511.22;;;23.90;100.00
26635;BME280;14490;54.208;37.686;2023-07-31T07:53:09;98496.50;;;23.85;100.00
26635;BME280;14490;54.208;37.686;2023-07-31T07:55:37;98477.50;;;23.83;100.00
26635;BME280;14490;54.208;37.686;2023-07-31T07:58:08;98509.47;;;24.08;100.00
26635;BME280;14490;54.208;37.686;2023-07-31T08:00:37;98513.22;;;24.13;100.00
26635;BME280;14490;54.208;37.686;2023-07-31T08:03:04;98501.84;;;24.10;100.00
26635;BME280;14490;54.208;37.686;2023-07-31T08:05:31;98511.91;;;24.16;100.00
26635;BME280;14490;54.208;37.686;2023-07-31T08:08:00;98433.38;;;23.67;100.00
26635;BME280;14490;54.208;37.686;2023-07-31T08:10:33;98513.56;;;24.17;100.00
26635;BME280;14490;54.208;37.686;2023-07-31T08:13:00;98491.06;;;24.08;100.00
26635;BME280;14490;54.208;37.686;2023-07-31T08:15:30;98506.31;;;24.22;100.00
26635;BME280;14490;54.208;37.686;2023-07-31T08:17:59;98503.69;;;24.27;100.00
26635;BME280;14490;54.208;37.686;2023-07-31T08:20:26;98520.09;;;24.45;100.00
26635;BME280;14490;54.208;37.686;2023-07-31T08:22:54;98504.16;;;24.36;100.00
26635;BME280;14490;54.208;37.686;2023-07-31T08:25:21;98517.34;;;24.45;100.00
26635;BME280;14490;54.208;37.686;2023-07-31T08:27:48;98535.38;;;24.53;100.00
26635;BME280;14490;54.208;37.686;2023-07-31T08:30:18;98536.97;;;24.61;100.00
26635;BME280;14490;54.208;37.686;2023-07-31T08:32:46;98535.53;;;24.70;100.00
26635;BME280;14490;54.208;37.686;2023-07-31T08:35:15;98520.22;;;24.74;100.00
26635;BME280;14490;54.208;37.686;2023-07-31T08:37:42;98525.97;;;24.84;100.00
26635;BME280;14490;54.208;37.686;2023-07-31T08:40:16;98513.97;;;24.78;100.00
26635;BME280;14490;54.208;37.686;2023-07-31T08:42:48;98490.19;;;24.72;100.00
26635;BME280;14490;54.208;37.686;2023-07-31T08:45:17;98517.13;;;24.93;100.00
26635;BME280;14490;54.208;37.686;2023-07-31T08:47:46;98532.78;;;25.16;100.00
26635;BME280;14490;54.208;37.686;2023-07-31T08:50:18;98519.38;;;25.20;100.00
26635;BME280;14490;54.208;37.686;2023-07-31T08:52:48;98526.75;;;25.31;100.00
26635;BME280;14490;54.208;37.686;2023-07-31T08:55:16;98535.38;;;25.34;100.00
26635;BME280;14490;54.208;37.686;2023-07-31T08:57:50;98512.53;;;25.22;100.00
26635;BME280;14490;54.208;37.686;2023-07-31T09:00:20;98539.66;;;25.42;100.00
26635;BME280;14490;54.208;37.686;2023-07-31T09:02:56;98538.09;;;25.46;100.00
26635;BME280;14490;54.208;37.686;2023-07-31T09:05:32;98524.47;;;25.39;100.00
26635;BME280;14490;54.208;37.686;2023-07-31T09:08:00;98518.00;;;25.34;100.00
26635;BME280;14490;54.208;37.686;2023-07-31T09:10:34;98534.75;;;25.44;100.00
26635;BME280;14490;54.208;37.686;2023-07-31T09:13:02;98485.03;;;25.11;100.00
26635;BME280;14490;54.208;37.686;2023-07-31T09:15:30;98534.28;;;25.47;100.00
26635;BME280;14490;54.208;37.686;2023-07-31T09:18:02;98523.91;;;25.66;100.00
26635;BME280;14490;54.208;37.686;2023-07-31T09:20:30;98531.16;;;25.83;100.00
26635;BME280;14490;54.208;37.686;2023-07-31T09:23:06;98509.28;;;25.93;100.00
26635;BME280;14490;54.208;37.686;2023-07-31T09:25:35;98498.25;;;25.93;100.00
26635;BME280;14490;54.208;37.686;2023-07-31T09:28:04;98511.31;;;26.15;100.00
26635;BME280;14490;54.208;37.686;2023-07-31T09:30:46;98498.63;;;26.14;100.00
26635;BME280;14490;54.208;37.686;2023-07-31T09:33:14;98508.84;;;26.30;100.00
26635;BME280;14490;54.208;37.686;2023-07-31T09:35:42;98476.19;;;26.22;100.00
26635;BME280;14490;54.208;37.686;2023-07-31T09:38:29;98503.44;;;26.35;100.00
26635;BME280;14490;54.208;37.686;2023-07-31T09:40:58;98491.81;;;26.33;100.00
26635;BME280;14490;54.208;37.686;2023-07-31T09:43:27;98508.38;;;26.49;100.00
26635;BME280;14490;54.208;37.686;2023-07-31T09:45:55;98492.16;;;26.36;100.00
26635;BME280;14490;54.208;37.686;2023-07-31T09:48:24;98506.72;;;26.32;100.00
26635;BME280;14490;54.208;37.686;2023-07-31T09:50:53;98474.06;;;26.12;100.00
26635;BME280;14490;54.208;37.686;2023-07-31T09:53:32;98501.53;;;26.35;100.00
26635;BME280;14490;54.208;37.686;2023-07-31T09:56:01;98510.97;;;26.39;100.00
26635;BME280;14490;54.208;37.686;2023-07-31T09:58:29;98510.06;;;26.50;100.00
26635;BME280;14490;54.208;37.686;2023-07-31T10:00:58;98487.47;;;26.53;100.00
26635;BME280;14490;54.208;37.686;2023-07-31T10:03:26;98502.47;;;26.79;100.00
26635;BME280;14490;54.208;37.686;2023-07-31T10:05:56;98501.16;;;26.98;100.00
26635;BME280;14490;54.208;37.686;2023-07-31T10:08:30;98526.38;;;27.24;100.00
26635;BME280;14490;54.208;37.686;2023-07-31T10:10:59;98518.94;;;27.46;100.00
26635;BME280;14490;54.208;37.686;2023-07-31T10:13:28;98500.44;;;27.73;100.00
26635;BME280;14490;54.208;37.686;2023-07-31T10:15:58;98518.00;;;28.05;100.00
26635;BME280;14490;54.208;37.686;2023-07-31T10:18:26;98525.38;;;28.27;98.86
26635;BME280;14490;54.208;37.686;2023-07-31T10:20:54;98515.44;;;28.31;90.32
26635;BME280;14490;54.208;37.686;2023-07-31T10:23:23;98494.34;;;27.98;83.93
26635;BME280;14490;54.208;37.686;2023-07-31T10:25:53;98518.69;;;27.96;90.16
26635;BME280;14490;54.208;37.686;2023-07-31T10:28:21;98508.34;;;27.86;97.67
26635;BME280;14490;54.208;37.686;2023-07-31T10:30:49;98515.59;;;27.92;100.00
26635;BME280;14490;54.208;37.686;2023-07-31T10:33:18;98498.69;;;27.62;100.00
26635;BME280;14490;54.208;37.686;2023-07-31T10:35:48;98526.84;;;27.59;100.00
26635;BME280;14490;54.208;37.686;2023-07-31T10:38:19;98512.22;;;27.42;100.00
26635;BME280;14490;54.208;37.686;2023-07-31T10:40:46;98521.13;;;27.27;100.00
26635;BME280;14490;54.208;37.686;2023-07-31T10:43:25;98517.84;;;27.08;100.00
26635;BME280;14490;54.208;37.686;2023-07-31T10:45:53;98498.81;;;26.90;100.00
26635;BME280;14490;54.208;37.686;2023-07-31T10:48:24;98513.66;;;27.06;100.00
26635;BME280;14490;54.208;37.686;2023-07-31T10:50:52;98480.84;;;27.09;100.00
26635;BME280;14490;54.208;37.686;2023-07-31T10:53:23;98522.38;;;27.58;100.00
26635;BME280;14490;54.208;37.686;2023-07-31T10:55:52;98512.09;;;27.75;100.00
26635;BME280;14490;54.208;37.686;2023-07-31T10:58:20;98511.81;;;28.03;100.00
26635;BME280;14490;54.208;37.686;2023-07-31T11:00:50;98508.25;;;28.30;100.00
26635;BME280;14490;54.208;37.686;2023-07-31T11:03:25;98509.03;;;28.57;100.00
26635;BME280;14490;54.208;37.686;2023-07-31T11:05:55;98513.13;;;28.81;100.00
26635;BME280;14490;54.208;37.686;2023-07-31T11:08:29;98503.38;;;29.20;100.00
26635;BME280;14490;54.208;37.686;2023-07-31T11:11:11;98486.31;;;29.44;100.00
26635;BME280;14490;54.208;37.686;2023-07-31T11:13:44;98467.47;;;29.41;100.00
26635;BME280;14490;54.208;37.686;2023-07-31T11:16:17;98507.41;;;29.55;99.21
26635;BME280;14490;54.208;37.686;2023-07-31T11:18:48;98481.22;;;29.20;98.70
26635;BME280;14490;54.208;37.686;2023-07-31T11:21:18;98483.81;;;28.90;98.42
26635;BME280;14490;54.208;37.686;2023-07-31T11:23:47;98487.25;;;28.65;98.42
26635;BME280;14490;54.208;37.686;2023-07-31T11:26:16;98492.34;;;28.47;96.58
26635;BME280;14490;54.208;37.686;2023-07-31T11:28:46;98503.84;;;28.34;96.13
26635;BME280;14490;54.208;37.686;2023-07-31T11:31:16;98500.19;;;28.28;100.00
26635;BME280;14490;54.208;37.686;2023-07-31T11:33:43;98491.13;;;28.33;100.00
26635;BME280;14490;54.208;37.686;2023-07-31T11:36:14;98491.84;;;28.55;100.00
26635;BME280;14490;54.208;37.686;2023-07-31T11:38:42;98495.91;;;28.79;100.00
26635;BME280;14490;54.208;37.686;2023-07-31T11:41:10;98496.97;;;28.73;99.40
26635;BME280;14490;54.208;37.686;2023-07-31T11:43:37;98495.88;;;28.69;100.00
26635;BME280;14490;54.208;37.686;2023-07-31T11:46:04;98499.19;;;28.71;99.66
26635;BME280;14490;54.208;37.686;2023-07-31T11:48:35;98494.72;;;28.65;100.00
26635;BME280;14490;54.208;37.686;2023-07-31T11:51:04;98500.97;;;28.55;100.00
26635;BME280;14490;54.208;37.686;2023-07-31T11:53:42;98482.16;;;28.20;100.00
26635;BME280;14490;54.208;37.686;2023-07-31T11:56:13;98499.03;;;27.97;100.00
26635;BME280;14490;54.208;37.686;2023-07-31T11:58:42;98506.78;;;27.95;100.00
26635;BME280;14490;54.208;37.686;2023-07-31T12:01:38;98514.56;;;27.98;100.00
26635;BME280;14490;54.208;37.686;2023-07-31T12:04:07;98505.63;;;27.91;100.00
26635;BME280;14490;54.208;37.686;2023-07-31T12:06:35;98507.19;;;27.82;100.00
26635;BME280;14490;54.208;37.686;2023-07-31T12:09:04;98504.31;;;27.72;100.00
26635;BME280;14490;54.208;37.686;2023-07-31T12:11:42;98497.00;;;27.61;100.00
26635;BME280;14490;54.208;37.686;2023-07-31T12:14:19;98509.78;;;27.67;100.00
26635;BME280;14490;54.208;37.686;2023-07-31T12:16:47;98507.63;;;27.69;100.00
26635;BME280;14490;54.208;37.686;2023-07-31T12:19:18;98506.56;;;27.75;100.00
26635;BME280;14490;54.208;37.686;2023-07-31T12:21:45;98506.09;;;27.83;100.00
26635;BME280;14490;54.208;37.686;2023-07-31T12:24:13;98513.34;;;27.89;100.00
26635;BME280;14490;54.208;37.686;2023-07-31T12:26:40;98510.63;;;27.94;100.00
26635;BME280;14490;54.208;37.686;2023-07-31T12:29:09;98503.44;;;27.93;100.00
26635;BME280;14490;54.208;37.686;2023-07-31T12:31:36;98500.72;;;27.98;100.00
26635;BME280;14490;54.208;37.686;2023-07-31T12:34:16;98509.06;;;28.03;100.00
26635;BME280;14490;54.208;37.686;2023-07-31T12:36:44;98507.22;;;28.09;100.00
26635;BME280;14490;54.208;37.686;2023-07-31T12:39:12;98513.56;;;28.09;100.00
26635;BME280;14490;54.208;37.686;2023-07-31T12:41:39;98501.69;;;28.09;100.00
26635;BME280;14490;54.208;37.686;2023-07-31T12:44:08;98494.19;;;28.04;100.00
26635;BME280;14490;54.208;37.686;2023-07-31T12:46:38;98504.28;;;28.20;100.00
26635;BME280;14490;54.208;37.686;2023-07-31T12:49:15;98486.00;;;28.19;100.00
26635;BME280;14490;54.208;37.686;2023-07-31T12:51:42;98501.94;;;28.39;100.00
26635;BME280;14490;54.208;37.686;2023-07-31T12:54:10;98493.47;;;28.51;100.00
26635;BME280;14490;54.208;37.686;2023-07-31T12:56:37;98503.81;;;28.60;100.00
26635;BME280;14490;54.208;37.686;2023-07-31T12:59:04;98484.59;;;28.49;100.00
26635;BME280;14490;54.208;37.686;2023-07-31T13:01:32;98468.44;;;28.36;100.00
26635;BME280;14490;54.208;37.686;2023-07-31T13:03:59;98497.56;;;28.43;100.00
26635;BME280;14490;54.208;37.686;2023-07-31T13:06:28;98497.84;;;28.42;100.00
26635;BME280;14490;54.208;37.686;2023-07-31T13:08:55;98499.56;;;28.48;100.00
26635;BME280;14490;54.208;37.686;2023-07-31T13:11:22;98493.34;;;28.36;100.00
26635;BME280;14490;54.208;37.686;2023-07-31T13:13:49;98491.94;;;28.33;100.00
26635;BME280;14490;54.208;37.686;2023-07-31T13:16:27;98480.00;;;28.28;100.00
26635;BME280;14490;54.208;37.686;2023-07-31T13:18:54;98479.47;;;28.31;100.00
26635;BME280;14490;54.208;37.686;2023-07-31T13:21:22;98480.19;;;28.48;100.00
26635;BME280;14490;54.208;37.686;2023-07-31T13:23:50;98478.59;;;28.57;100.00
26635;BME280;14490;54.208;37.686;2023-07-31T13:26:17;98494.19;;;28.68;100.00
26635;BME280;14490;54.208;37.686;2023-07-31T13:28:45;98490.34;;;28.74;100.00
26635;BME280;14490;54.208;37.686;2023-07-31T13:31:12;98483.72;;;28.75;100.00
26635;BME280;14490;54.208;37.686;2023-07-31T13:33:39;98484.78;;;28.69;100.00
26635;BME280;14490;54.208;37.686;2023-07-31T13:36:06;98492.41;;;28.57;100.00
26635;BME280;14490;54.208;37.686;2023-07-31T13:38:37;98469.50;;;28.30;100.00
26635;BME280;14490;54.208;37.686;2023-07-31T13:41:05;98476.56;;;28.15;100.00
26635;BME280;14490;54.208;37.686;2023-07-31T13:43:34;98472.50;;;27.96;100.00
26635;BME280;14490;54.208;37.686;2023-07-31T13:46:01;98457.88;;;27.74;100.00
26635;BME280;14490;54.208;37.686;2023-07-31T13:48:32;98453.25;;;27.53;100.00
26635;BME280;14490;54.208;37.686;2023-07-31T13:51:01;98465.56;;;27.45;100.00
26635;BME280;14490;54.208;37.686;2023-07-31T13:53:28;98476.41;;;27.30;100.00
26635;BME280;14490;54.208;37.686;2023-07-31T13:55:57;98474.38;;;27.21;100.00
26635;BME280;14490;54.208;37.686;2023-07-31T13:58:26;98478.19;;;27.14;100.00
26635;BME280;14490;54.208;37.686;2023-07-31T14:00:53;98482.53;;;27.10;100.00
26635;BME280;14490;54.208;37.686;2023-07-31T14:03:20;98482.84;;;27.14;100.00
26635;BME280;14490;54.208;37.686;2023-07-31T14:05:48;98478.75;;;27.17;100.00
26635;BME280;14490;54.208;37.686;2023-07-31T14:08:16;98478.22;;;27.20;100.00
26635;BME280;14490;54.208;37.686;2023-07-31T14:10:45;98482.97;;;27.24;100.00
26635;BME280;14490;54.208;37.686;2023-07-31T14:13:12;98479.13;;;27.25;100.00
26635;BME280;14490;54.208;37.686;2023-07-31T14:15:43;98465.25;;;27.20;100.00
26635;BME280;14490;54.208;37.686;2023-07-31T14:18:11;98486.94;;;27.33;100.00
26635;BME280;14490;54.208;37.686;2023-07-31T14:20:38;98459.06;;;27.35;100.00
26635;BME280;14490;54.208;37.686;2023-07-31T14:23:05;98479.19;;;27.52;100.00
26635;BME280;14490;54.208;37.686;2023-07-31T14:25:33;98452.88;;;27.44;100.00
26635;BME280;14490;54.208;37.686;2023-07-31T14:28:00;98469.50;;;27.49;100.00
26635;BME280;14490;54.208;37.686;2023-07-31T14:30:27;98467.38;;;27.35;100.00
26635;BME280;14490;54.208;37.686;2023-07-31T14:32:56;98461.38;;;27.21;100.00
26635;BME280;14490;54.208;37.686;2023-07-31T14:35:23;98471.41;;;27.05;100.00
26635;BME280;14490;54.208;37.686;2023-07-31T14:37:52;98470.69;;;26.93;100.00
26635;BME280;14490;54.208;37.686;2023-07-31T14:40:33;98451.03;;;26.73;100.00
26635;BME280;14490;54.208;37.686;2023-07-31T14:43:02;98475.31;;;26.71;100.00
26635;BME280;14490;54.208;37.686;2023-07-31T14:45:29;98432.88;;;26.39;100.00
26635;BME280;14490;54.208;37.686;2023-07-31T14:47:58;98464.63;;;26.58;100.00
26635;BME280;14490;54.208;37.686;2023-07-31T14:50:25;98410.50;;;26.19;100.00
26635;BME280;14490;54.208;37.686;2023-07-31T14:52:55;98457.84;;;26.49;100.00
26635;BME280;14490;54.208;37.686;2023-07-31T14:55:26;98468.22;;;26.42;100.00
26635;BME280;14490;54.208;37.686;2023-07-31T14:57:57;98461.78;;;26.36;100.00
26635;BME280;14490;54.208;37.686;2023-07-31T15:00:24;98454.69;;;26.24;100.00
26635;BME280;14490;54.208;37.686;2023-07-31T15:02:52;98454.88;;;26.17;100.00
26635;BME280;14490;54.208;37.686;2023-07-31T15:05:20;98465.06;;;26.17;100.00
26635;BME280;14490;54.208;37.686;2023-07-31T15:07:48;98468.81;;;26.11;100.00
26635;BME280;14490;54.208;37.686;2023-07-31T15:10:15;98465.44;;;26.08;100.00
26635;BME280;14490;54.208;37.686;2023-07-31T15:12:43;98449.88;;;26.02;100.00
26635;BME280;14490;54.208;37.686;2023-07-31T15:15:12;98464.63;;;26.08;100.00
26635;BME280;14490;54.208;37.686;2023-07-31T15:17:40;98464.38;;;26.09;100.00
26635;BME280;14490;54.208;37.686;2023-07-31T15:20:10;98447.97;;;26.03;100.00
26635;BME280;14490;54.208;37.686;2023-07-31T15:22:40;98460.03;;;26.14;100.00
26635;BME280;14490;54.208;37.686;2023-07-31T15:25:08;98455.69;;;26.18;100.00
26635;BME280;14490;54.208;37.686;2023-07-31T15:27:35;98462.91;;;26.19;100.00
26635;BME280;14490;54.208;37.686;2023-07-31T15:30:03;98462.31;;;26.17;100.00
26635;BME280;14490;54.208;37.686;2023-07-31T15:32:31;98414.47;;;25.94;100.00
26635;BME280;14490;54.208;37.686;2023-07-31T15:34:58;98423.31;;;25.96;100.00
26635;BME280;14490;54.208;37.686;2023-07-31T15:37:26;98458.22;;;26.19;100.00
26635;BME280;14490;54.208;37.686;2023-07-31T15:39:55;98452.84;;;26.13;100.00
26635;BME280;14490;54.208;37.686;2023-07-31T15:42:22;98453.53;;;26.20;100.00
26635;BME280;14490;54.208;37.686;2023-07-31T15:44:49;98453.53;;;26.20;100.00
26635;BME280;14490;54.208;37.686;2023-07-31T15:47:17;98448.38;;;26.12;100.00
26635;BME280;14490;54.208;37.686;2023-07-31T15:49:45;98355.31;;;25.52;100.00
26635;BME280;14490;54.208;37.686;2023-07-31T15:52:15;98443.31;;;26.03;100.00
26635;BME280;14490;54.208;37.686;2023-07-31T15:54:45;98437.28;;;26.06;100.00
26635;BME280;14490;54.208;37.686;2023-07-31T15:57:14;98463.88;;;26.13;100.00
26635;BME280;14490;54.208;37.686;2023-07-31T15:59:41;98449.50;;;26.11;100.00
26635;BME280;14490;54.208;37.686;2023-07-31T16:02:09;98449.50;;;26.11;100.00
26635;BME280;14490;54.208;37.686;2023-07-31T16:04:39;98453.91;;;26.12;100.00
26635;BME280;14490;54.208;37.686;2023-07-31T16:07:06;98453.34;;;26.09;100.00
26635;BME280;14490;54.208;37.686;2023-07-31T16:09:34;98451.06;;;26.06;100.00
26635;BME280;14490;54.208;37.686;2023-07-31T16:12:01;98450.22;;;26.06;100.00
26635;BME280;14490;54.208;37.686;2023-07-31T16:14:31;98427.06;;;25.90;100.00
26635;BME280;14490;54.208;37.686;2023-07-31T16:16:58;98457.66;;;26.05;100.00
26635;BME280;14490;54.208;37.686;2023-07-31T16:19:26;98455.91;;;25.99;100.00
26635;BME280;14490;54.208;37.686;2023-07-31T16:21:58;98451.72;;;25.97;100.00
26635;BME280;14490;54.208;37.686;2023-07-31T16:24:25;98455.59;;;25.96;100.00
26635;BME280;14490;54.208;37.686;2023-07-31T16:26:54;98448.31;;;25.90;100.00
26635;BME280;14490;54.208;37.686;2023-07-31T16:29:21;98459.09;;;25.91;100.00
26635;BME280;14490;54.208;37.686;2023-07-31T16:31:51;98456.81;;;25.88;100.00
26635;BME280;14490;54.208;37.686;2023-07-31T16:34:26;98461.84;;;25.91;100.00
26635;BME280;14490;54.208;37.686;2023-07-31T16:36:59;98464.09;;;25.94;100.00
26635;BME280;14490;54.208;37.686;2023-07-31T16:39:26;98470.69;;;25.93;100.00
26635;BME280;14490;54.208;37.686;2023-07-31T16:41:54;98458.50;;;25.89;100.00
26635;BME280;14490;54.208;37.686;2023-07-31T16:44:21;98460.66;;;25.87;100.00
26635;BME280;14490;54.208;37.686;2023-07-31T16:46:50;98462.84;;;25.85;100.00
26635;BME280;14490;54.208;37.686;2023-07-31T16:49:17;98469.41;;;25.84;100.00
26635;BME280;14490;54.208;37.686;2023-07-31T16:51:44;98447.59;;;25.66;100.00
26635;BME280;14490;54.208;37.686;2023-07-31T16:54:12;98483.69;;;25.81;100.00
26635;BME280;14490;54.208;37.686;2023-07-31T16:56:40;98474.59;;;25.81;100.00
26635;BME280;14490;54.208;37.686;2023-07-31T16:59:08;98483.13;;;25.79;100.00
26635;BME280;14490;54.208;37.686;2023-07-31T17:01:35;98473.00;;;25.68;100.00
26635;BME280;14490;54.208;37.686;2023-07-31T17:04:08;98490.47;;;25.74;100.00
26635;BME280;14490;54.208;37.686;2023-07-31T17:06:36;98467.19;;;25.53;100.00
26635;BME280;14490;54.208;37.686;2023-07-31T17:09:03;98488.25;;;25.59;100.00
26635;BME280;14490;54.208;37.686;2023-07-31T17:11:30;98492.09;;;25.46;100.00
26635;BME280;14490;54.208;37.686;2023-07-31T17:13:58;98484.22;;;25.38;100.00
26635;BME280;14490;54.208;37.686;2023-07-31T17:16:28;98488.69;;;25.28;100.00
26635;BME280;14490;54.208;37.686;2023-07-31T17:18:59;98499.13;;;25.14;100.00
26635;BME280;14490;54.208;37.686;2023-07-31T17:21:30;98512.56;;;25.11;100.00
26635;BME280;14490;54.208;37.686;2023-07-31T17:23:58;98512.34;;;25.00;100.00
26635;BME280;14490;54.208;37.686;2023-07-31T17:26:29;98484.69;;;24.72;100.00
26635;BME280;14490;54.208;37.686;2023-07-31T17:28:56;98520.94;;;24.81;100.00
26635;BME280;14490;54.208;37.686;2023-07-31T17:31:25;98526.56;;;24.74;100.00
26635;BME280;14490;54.208;37.686;2023-07-31T17:33:52;98518.06;;;24.64;100.00
26635;BME280;14490;54.208;37.686;2023-07-31T17:36:20;98508.03;;;24.46;100.00
26635;BME280;14490;54.208;37.686;2023-07-31T17:38:49;98482.03;;;24.19;100.00
26635;BME280;14490;54.208;37.686;2023-07-31T17:45:11;98528.81;;;24.31;100.00
26635;BME280;14490;54.208;37.686;2023-07-31T17:47:38;98531.06;;;24.22;100.00
26635;BME280;14490;54.208;37.686;2023-07-31T17:50:06;98534.38;;;24.13;100.00
26635;BME280;14490;54.208;37.686;2023-07-31T17:52:34;98529.97;;;23.93;100.00
26635;BME280;14490;54.208;37.686;2023-07-31T17:55:03;98553.19;;;23.98;100.00
26635;BME280;14490;54.208;37.686;2023-07-31T17:57:31;98548.63;;;23.91;100.00
26635;BME280;14490;54.208;37.686;2023-07-31T17:59:58;98551.09;;;23.81;100.00
26635;BME280;14490;54.208;37.686;2023-07-31T18:02:25;98553.84;;;23.81;100.00
26635;BME280;14490;54.208;37.686;2023-07-31T18:05:00;98536.34;;;23.64;100.00
26635;BME280;14490;54.208;37.686;2023-07-31T18:07:28;98525.91;;;23.55;100.00
26635;BME280;14490;54.208;37.686;2023-07-31T18:09:55;98542.75;;;23.58;100.00
26635;BME280;14490;54.208;37.686;2023-07-31T18:12:24;98565.47;;;23.65;100.00
26635;BME280;14490;54.208;37.686;2023-07-31T18:14:51;98549.91;;;23.59;100.00
26635;BME280;14490;54.208;37.686;2023-07-31T18:17:19;98565.19;;;23.55;100.00
26635;BME280;14490;54.208;37.686;2023-07-31T18:19:49;98573.91;;;23.52;100.00
26635;BME280;14490;54.208;37.686;2023-07-31T18:22:16;98566.13;;;23.49;100.00
26635;BME280;14490;54.208;37.686;2023-07-31T18:24:44;98538.47;;;23.26;100.00
26635;BME280;14490;54.208;37.686;2023-07-31T18:27:12;98570.84;;;23.42;100.00
26635;BME280;14490;54.208;37.686;2023-07-31T18:29:42;98546.88;;;23.31;100.00
26635;BME280;14490;54.208;37.686;2023-07-31T18:32:11;98575.91;;;23.38;100.00
26635;BME280;14490;54.208;37.686;2023-07-31T18:34:39;98565.09;;;23.25;100.00